sensor_id;sensor_type;location;lat;lon;timestamp;P1;durP1;ratioP1;P2;durP2;ratioP2
55220;SDS011;41089;51.448;6.604;2023-11-21T00:01:49;17.00;;;11.00;;
55220;SDS011;41089;51.448;6.604;2023-11-21T00:07:49;22.40;;;12.05;;
55220;SDS011;41089;51.448;6.604;2023-11-21T00:13:49;20.00;;;9.70;;
55220;SDS011;41089;51.448;6.604;2023-11-21T00:19:50;29.17;;;15.17;;
55220;SDS011;41089;51.448;6.604;2023-11-21T00:25:52;21.77;;;12.60;;
55220;SDS011;41089;51.448;6.604;2023-11-21T00:31:52;24.60;;;13.20;;
55220;SDS011;41089;51.448;6.604;2023-11-21T00:37:53;21.85;;;10.95;;
55220;SDS011;41089;51.448;6.604;2023-11-21T00:43:54;27.60;;;15.07;;
55220;SDS011;41089;51.448;6.604;2023-11-21T00:49:55;20.58;;;12.73;;
55220;SDS011;41089;51.448;6.604;2023-11-21T00:55:55;27.00;;;14.70;;
55220;SDS011;41089;51.448;6.604;2023-11-21T01:01:57;20.90;;;12.82;;
55220;SDS011;41089;51.448;6.604;2023-11-21T01:08:00;21.88;;;12.57;;
55220;SDS011;41089;51.448;6.604;2023-11-21T01:14:00;23.17;;;13.13;;
55220;SDS011;41089;51.448;6.604;2023-11-21T01:20:01;26.48;;;13.52;;
55220;SDS011;41089;51.448;6.604;2023-11-21T01:26:03;22.75;;;14.02;;
55220;SDS011;41089;51.448;6.604;2023-11-21T01:32:03;30.92;;;14.65;;
55220;SDS011;41089;51.448;6.604;2023-11-21T01:38:04;20.65;;;13.60;;
55220;SDS011;41089;51.448;6.604;2023-11-21T01:44:05;24.35;;;15.15;;
55220;SDS011;41089;51.448;6.604;2023-11-21T01:50:07;23.95;;;14.95;;
55220;SDS011;41089;51.448;6.604;2023-11-21T01:56:09;20.02;;;13.30;;
55220;SDS011;41089;51.448;6.604;2023-11-21T02:02:09;25.05;;;14.40;;
55220;SDS011;41089;51.448;6.604;2023-11-21T02:08:10;22.17;;;13.88;;
55220;SDS011;41089;51.448;6.604;2023-11-21T02:14:10;22.38;;;15.02;;
55220;SDS011;41089;51.448;6.604;2023-11-21T02:20:11;30.67;;;18.02;;
55220;SDS011;41089;51.448;6.604;2023-11-21T02:26:15;21.05;;;15.05;;
55220;SDS011;41089;51.448;6.604;2023-11-21T02:32:16;30.02;;;17.63;;
55220;SDS011;41089;51.448;6.604;2023-11-21T02:38:19;28.40;;;17.13;;
55220;SDS011;41089;51.448;6.604;2023-11-21T02:44:19;23.07;;;15.90;;
55220;SDS011;41089;51.448;6.604;2023-11-21T02:50:19;39.20;;;18.30;;
55220;SDS011;41089;51.448;6.604;2023-11-21T02:56:20;24.00;;;16.63;;
55220;SDS011;41089;51.448;6.604;2023-11-21T03:02:20;33.80;;;18.80;;
55220;SDS011;41089;51.448;6.604;2023-11-21T03:08:21;37.63;;;18.35;;
55220;SDS011;41089;51.448;6.604;2023-11-21T03:14:21;36.78;;;18.35;;
55220;SDS011;41089;51.448;6.604;2023-11-21T03:20:22;24.63;;;15.80;;
55220;SDS011;41089;51.448;6.604;2023-11-21T03:26:22;34.08;;;18.92;;
55220;SDS011;41089;51.448;6.604;2023-11-21T03:32:22;34.03;;;18.13;;
55220;SDS011;41089;51.448;6.604;2023-11-21T03:38:23;29.27;;;17.05;;
55220;SDS011;41089;51.448;6.604;2023-11-21T03:44:26;30.10;;;15.85;;
55220;SDS011;41089;51.448;6.604;2023-11-21T03:50:26;29.65;;;16.70;;
55220;SDS011;41089;51.448;6.604;2023-11-21T03:56:27;29.77;;;17.77;;
55220;SDS011;41089;51.448;6.604;2023-11-21T04:02:27;25.43;;;16.97;;
55220;SDS011;41089;51.448;6.604;2023-11-21T04:08:28;32.63;;;17.35;;
55220;SDS011;41089;51.448;6.604;2023-11-21T04:14:28;40.90;;;18.67;;
55220;SDS011;41089;51.448;6.604;2023-11-21T04:20:30;38.50;;;17.83;;
55220;SDS011;41089;51.448;6.604;2023-11-21T04:26:30;27.23;;;16.00;;
55220;SDS011;41089;51.448;6.604;2023-11-21T04:32:31;31.47;;;18.57;;
55220;SDS011;41089;51.448;6.604;2023-11-21T04:38:31;35.05;;;18.85;;
55220;SDS011;41089;51.448;6.604;2023-11-21T04:44:32;30.83;;;18.90;;
55220;SDS011;41089;51.448;6.604;2023-11-21T04:50:33;35.40;;;20.77;;
55220;SDS011;41089;51.448;6.604;2023-11-21T04:56:33;37.37;;;20.30;;
55220;SDS011;41089;51.448;6.604;2023-11-21T05:02:34;47.08;;;23.27;;
55220;SDS011;41089;51.448;6.604;2023-11-21T05:08:35;39.17;;;22.95;;
55220;SDS011;41089;51.448;6.604;2023-11-21T05:14:37;43.90;;;22.90;;
55220;SDS011;41089;51.448;6.604;2023-11-21T05:20:39;48.13;;;23.40;;
55220;SDS011;41089;51.448;6.604;2023-11-21T05:26:40;42.72;;;23.98;;
55220;SDS011;41089;51.448;6.604;2023-11-21T05:32:41;41.35;;;23.00;;
55220;SDS011;41089;51.448;6.604;2023-11-21T05:38:46;45.58;;;25.10;;
55220;SDS011;41089;51.448;6.604;2023-11-21T05:44:46;51.78;;;25.52;;
55220;SDS011;41089;51.448;6.604;2023-11-21T05:50:47;78.75;;;28.65;;
55220;SDS011;41089;51.448;6.604;2023-11-21T05:56:49;48.88;;;24.88;;
55220;SDS011;41089;51.448;6.604;2023-11-21T06:02:50;54.57;;;26.33;;
55220;SDS011;41089;51.448;6.604;2023-11-21T06:08:52;63.53;;;27.70;;
55220;SDS011;41089;51.448;6.604;2023-11-21T06:14:53;47.17;;;25.05;;
55220;SDS011;41089;51.448;6.604;2023-11-21T06:20:53;72.43;;;29.40;;
55220;SDS011;41089;51.448;6.604;2023-11-21T06:26:54;46.38;;;25.95;;
55220;SDS011;41089;51.448;6.604;2023-11-21T06:32:54;67.77;;;28.40;;
55220;SDS011;41089;51.448;6.604;2023-11-21T06:38:54;69.55;;;27.77;;
55220;SDS011;41089;51.448;6.604;2023-11-21T06:44:55;54.60;;;25.92;;
55220;SDS011;41089;51.448;6.604;2023-11-21T06:50:57;71.40;;;27.95;;
55220;SDS011;41089;51.448;6.604;2023-11-21T06:56:57;54.60;;;25.75;;
55220;SDS011;41089;51.448;6.604;2023-11-21T07:02:58;41.43;;;22.43;;
55220;SDS011;41089;51.448;6.604;2023-11-21T07:08:58;47.30;;;24.05;;
55220;SDS011;41089;51.448;6.604;2023-11-21T07:14:59;116.95;;;32.10;;
55220;SDS011;41089;51.448;6.604;2023-11-21T07:21:00;46.43;;;24.17;;
55220;SDS011;41089;51.448;6.604;2023-11-21T07:27:00;60.10;;;26.10;;
55220;SDS011;41089;51.448;6.604;2023-11-21T07:33:01;53.30;;;27.05;;
55220;SDS011;41089;51.448;6.604;2023-11-21T07:39:01;74.05;;;29.80;;
55220;SDS011;41089;51.448;6.604;2023-11-21T07:45:03;65.88;;;29.42;;
55220;SDS011;41089;51.448;6.604;2023-11-21T07:51:04;43.63;;;24.13;;
55220;SDS011;41089;51.448;6.604;2023-11-21T07:57:05;66.40;;;25.35;;
55220;SDS011;41089;51.448;6.604;2023-11-21T08:03:05;55.47;;;24.95;;
55220;SDS011;41089;51.448;6.604;2023-11-21T08:09:06;43.65;;;22.92;;
55220;SDS011;41089;51.448;6.604;2023-11-21T08:15:08;43.28;;;23.83;;
55220;SDS011;41089;51.448;6.604;2023-11-21T08:21:12;37.60;;;20.50;;
55220;SDS011;41089;51.448;6.604;2023-11-21T08:27:14;41.75;;;22.23;;
55220;SDS011;41089;51.448;6.604;2023-11-21T08:33:16;46.22;;;23.83;;
55220;SDS011;41089;51.448;6.604;2023-11-21T08:39:17;39.50;;;20.98;;
55220;SDS011;41089;51.448;6.604;2023-11-21T08:45:19;54.95;;;25.15;;
55220;SDS011;41089;51.448;6.604;2023-11-21T08:51:19;50.30;;;22.43;;
55220;SDS011;41089;51.448;6.604;2023-11-21T08:57:20;46.00;;;21.75;;
55220;SDS011;41089;51.448;6.604;2023-11-21T09:03:20;43.45;;;23.50;;
55220;SDS011;41089;51.448;6.604;2023-11-21T09:09:21;52.78;;;23.80;;
55220;SDS011;41089;51.448;6.604;2023-11-21T09:15:21;45.25;;;22.60;;
55220;SDS011;41089;51.448;6.604;2023-11-21T09:21:22;32.58;;;20.35;;
55220;SDS011;41089;51.448;6.604;2023-11-21T09:27:24;36.65;;;22.10;;
55220;SDS011;41089;51.448;6.604;2023-11-21T09:33:25;39.67;;;22.52;;
55220;SDS011;41089;51.448;6.604;2023-11-21T09:39:26;39.15;;;21.55;;
55220;SDS011;41089;51.448;6.604;2023-11-21T09:45:27;31.43;;;20.43;;
55220;SDS011;41089;51.448;6.604;2023-11-21T09:51:28;29.85;;;18.75;;
55220;SDS011;41089;51.448;6.604;2023-11-21T09:57:33;40.10;;;22.15;;
55220;SDS011;41089;51.448;6.604;2023-11-21T10:03:35;38.42;;;22.35;;
55220;SDS011;41089;51.448;6.604;2023-11-21T10:09:36;43.03;;;23.60;;
55220;SDS011;41089;51.448;6.604;2023-11-21T10:15:38;39.47;;;22.60;;
55220;SDS011;41089;51.448;6.604;2023-11-21T10:21:38;35.30;;;18.92;;
55220;SDS011;41089;51.448;6.604;2023-11-21T10:27:40;40.03;;;21.35;;
55220;SDS011;41089;51.448;6.604;2023-11-21T10:33:41;32.78;;;18.52;;
55220;SDS011;41089;51.448;6.604;2023-11-21T10:39:42;42.53;;;22.05;;
55220;SDS011;41089;51.448;6.604;2023-11-21T10:45:44;32.88;;;20.23;;
55220;SDS011;41089;51.448;6.604;2023-11-21T10:51:44;32.15;;;20.08;;
55220;SDS011;41089;51.448;6.604;2023-11-21T10:57:46;41.67;;;22.48;;
55220;SDS011;41089;51.448;6.604;2023-11-21T11:03:50;35.88;;;20.65;;
55220;SDS011;41089;51.448;6.604;2023-11-21T11:09:54;28.63;;;18.27;;
55220;SDS011;41089;51.448;6.604;2023-11-21T11:15:57;32.00;;;19.75;;
55220;SDS011;41089;51.448;6.604;2023-11-21T11:28:07;28.77;;;19.17;;
55220;SDS011;41089;51.448;6.604;2023-11-21T11:34:11;36.80;;;21.83;;
55220;SDS011;41089;51.448;6.604;2023-11-21T11:40:19;38.33;;;24.25;;
55220;SDS011;41089;51.448;6.604;2023-11-21T11:46:20;49.38;;;24.67;;
55220;SDS011;41089;51.448;6.604;2023-11-21T11:52:33;43.25;;;24.50;;
55220;SDS011;41089;51.448;6.604;2023-11-21T11:58:37;47.65;;;25.27;;
55220;SDS011;41089;51.448;6.604;2023-11-21T12:04:37;48.65;;;26.63;;
55220;SDS011;41089;51.448;6.604;2023-11-21T12:10:41;55.22;;;25.90;;
55220;SDS011;41089;51.448;6.604;2023-11-21T12:16:43;55.08;;;26.83;;
55220;SDS011;41089;51.448;6.604;2023-11-21T12:28:51;61.05;;;29.17;;
55220;SDS011;41089;51.448;6.604;2023-11-21T12:34:55;56.67;;;27.08;;
55220;SDS011;41089;51.448;6.604;2023-11-21T12:40:55;52.70;;;28.25;;
55220;SDS011;41089;51.448;6.604;2023-11-21T12:46:57;50.22;;;27.38;;
55220;SDS011;41089;51.448;6.604;2023-11-21T12:52:59;53.50;;;27.13;;
55220;SDS011;41089;51.448;6.604;2023-11-21T12:58:59;53.05;;;27.90;;
55220;SDS011;41089;51.448;6.604;2023-11-21T13:05:01;46.92;;;26.95;;
55220;SDS011;41089;51.448;6.604;2023-11-21T13:11:06;46.05;;;28.58;;
55220;SDS011;41089;51.448;6.604;2023-11-21T13:17:07;51.63;;;31.92;;
55220;SDS011;41089;51.448;6.604;2023-11-21T13:23:07;65.18;;;34.63;;
55220;SDS011;41089;51.448;6.604;2023-11-21T13:29:09;68.30;;;33.45;;
55220;SDS011;41089;51.448;6.604;2023-11-21T13:35:13;56.45;;;30.85;;
55220;SDS011;41089;51.448;6.604;2023-11-21T13:41:39;51.30;;;30.50;;
55220;SDS011;41089;51.448;6.604;2023-11-21T13:47:41;46.72;;;28.52;;
55220;SDS011;41089;51.448;6.604;2023-11-21T13:53:42;35.70;;;23.55;;
55220;SDS011;41089;51.448;6.604;2023-11-21T13:59:47;28.30;;;18.10;;
55220;SDS011;41089;51.448;6.604;2023-11-21T14:05:49;20.27;;;13.15;;
55220;SDS011;41089;51.448;6.604;2023-11-21T14:11:51;20.65;;;13.65;;
55220;SDS011;41089;51.448;6.604;2023-11-21T14:17:53;19.73;;;13.45;;
55220;SDS011;41089;51.448;6.604;2023-11-21T14:23:54;21.70;;;13.90;;
55220;SDS011;41089;51.448;6.604;2023-11-21T14:29:55;22.53;;;14.97;;
55220;SDS011;41089;51.448;6.604;2023-11-21T14:35:57;23.35;;;14.35;;
55220;SDS011;41089;51.448;6.604;2023-11-21T14:41:57;19.73;;;13.70;;
55220;SDS011;41089;51.448;6.604;2023-11-21T14:47:59;20.15;;;14.23;;
55220;SDS011;41089;51.448;6.604;2023-11-21T14:54:06;28.42;;;17.92;;
55220;SDS011;41089;51.448;6.604;2023-11-21T15:00:06;26.57;;;16.30;;
55220;SDS011;41089;51.448;6.604;2023-11-21T15:06:24;21.98;;;14.35;;
55220;SDS011;41089;51.448;6.604;2023-11-21T15:12:29;19.88;;;14.02;;
55220;SDS011;41089;51.448;6.604;2023-11-21T15:18:34;19.77;;;12.00;;
55220;SDS011;41089;51.448;6.604;2023-11-21T15:24:35;16.50;;;11.63;;
55220;SDS011;41089;51.448;6.604;2023-11-21T15:30:36;14.50;;;10.38;;
55220;SDS011;41089;51.448;6.604;2023-11-21T15:36:36;15.83;;;11.10;;
55220;SDS011;41089;51.448;6.604;2023-11-21T15:42:37;17.95;;;11.30;;
55220;SDS011;41089;51.448;6.604;2023-11-21T15:48:39;13.57;;;8.43;;
55220;SDS011;41089;51.448;6.604;2023-11-21T15:54:43;11.80;;;8.70;;
55220;SDS011;41089;51.448;6.604;2023-11-21T16:00:45;12.75;;;8.32;;
55220;SDS011;41089;51.448;6.604;2023-11-21T16:06:48;8.98;;;7.85;;
55220;SDS011;41089;51.448;6.604;2023-11-21T16:12:48;9.52;;;7.40;;
55220;SDS011;41089;51.448;6.604;2023-11-21T16:18:48;10.93;;;9.23;;
55220;SDS011;41089;51.448;6.604;2023-11-21T16:24:49;9.60;;;8.32;;
55220;SDS011;41089;51.448;6.604;2023-11-21T16:30:49;14.43;;;10.13;;
55220;SDS011;41089;51.448;6.604;2023-11-21T16:36:50;12.70;;;9.50;;
55220;SDS011;41089;51.448;6.604;2023-11-21T16:42:51;13.45;;;11.07;;
55220;SDS011;41089;51.448;6.604;2023-11-21T16:48:52;13.45;;;12.05;;
55220;SDS011;41089;51.448;6.604;2023-11-21T16:54:53;16.17;;;11.90;;
55220;SDS011;41089;51.448;6.604;2023-11-21T17:00:54;13.48;;;11.70;;
55220;SDS011;41089;51.448;6.604;2023-11-21T17:06:54;12.43;;;10.27;;
55220;SDS011;41089;51.448;6.604;2023-11-21T17:12:55;11.68;;;10.02;;
55220;SDS011;41089;51.448;6.604;2023-11-21T17:18:55;11.25;;;10.15;;
55220;SDS011;41089;51.448;6.604;2023-11-21T17:24:55;12.68;;;11.30;;
55220;SDS011;41089;51.448;6.604;2023-11-21T17:30:57;13.60;;;11.70;;
55220;SDS011;41089;51.448;6.604;2023-11-21T17:36:58;14.32;;;11.30;;
55220;SDS011;41089;51.448;6.604;2023-11-21T17:42:59;10.38;;;9.27;;
55220;SDS011;41089;51.448;6.604;2023-11-21T17:48:59;13.13;;;9.38;;
55220;SDS011;41089;51.448;6.604;2023-11-21T17:54:59;10.30;;;8.90;;
55220;SDS011;41089;51.448;6.604;2023-11-21T18:01:00;11.43;;;8.73;;
55220;SDS011;41089;51.448;6.604;2023-11-21T18:07:03;8.80;;;7.90;;
55220;SDS011;41089;51.448;6.604;2023-11-21T18:13:06;7.30;;;6.60;;
55220;SDS011;41089;51.448;6.604;2023-11-21T18:19:07;9.05;;;5.47;;
55220;SDS011;41089;51.448;6.604;2023-11-21T18:25:08;6.03;;;5.43;;
55220;SDS011;41089;51.448;6.604;2023-11-21T18:31:09;8.90;;;6.15;;
55220;SDS011;41089;51.448;6.604;2023-11-21T18:37:10;8.23;;;6.13;;
55220;SDS011;41089;51.448;6.604;2023-11-21T18:43:10;9.65;;;6.45;;
55220;SDS011;41089;51.448;6.604;2023-11-21T18:49:12;11.18;;;6.10;;
55220;SDS011;41089;51.448;6.604;2023-11-21T18:55:12;11.25;;;6.47;;
55220;SDS011;41089;51.448;6.604;2023-11-21T19:01:12;9.90;;;6.70;;
55220;SDS011;41089;51.448;6.604;2023-11-21T19:07:13;9.38;;;7.00;;
55220;SDS011;41089;51.448;6.604;2023-11-21T19:13:14;9.48;;;8.40;;
55220;SDS011;41089;51.448;6.604;2023-11-21T19:19:16;11.48;;;8.75;;
55220;SDS011;41089;51.448;6.604;2023-11-21T19:25:17;11.93;;;8.82;;
55220;SDS011;41089;51.448;6.604;2023-11-21T19:31:19;11.10;;;9.18;;
55220;SDS011;41089;51.448;6.604;2023-11-21T19:37:19;11.40;;;8.57;;
55220;SDS011;41089;51.448;6.604;2023-11-21T19:43:20;10.30;;;9.20;;
55220;SDS011;41089;51.448;6.604;2023-11-21T19:49:20;11.15;;;9.25;;
55220;SDS011;41089;51.448;6.604;2023-11-21T19:55:21;10.55;;;9.45;;
55220;SDS011;41089;51.448;6.604;2023-11-21T20:01:21;11.88;;;9.95;;
55220;SDS011;41089;51.448;6.604;2023-11-21T20:07:22;12.32;;;10.30;;
55220;SDS011;41089;51.448;6.604;2023-11-21T20:13:23;13.32;;;11.00;;
55220;SDS011;41089;51.448;6.604;2023-11-21T20:19:24;13.47;;;10.37;;
55220;SDS011;41089;51.448;6.604;2023-11-21T20:25:27;11.67;;;10.13;;
55220;SDS011;41089;51.448;6.604;2023-11-21T20:31:27;12.13;;;10.57;;
55220;SDS011;41089;51.448;6.604;2023-11-21T20:37:28;16.02;;;13.55;;
55220;SDS011;41089;51.448;6.604;2023-11-21T20:43:28;17.05;;;13.32;;
55220;SDS011;41089;51.448;6.604;2023-11-21T20:49:28;15.48;;;12.88;;
55220;SDS011;41089;51.448;6.604;2023-11-21T20:55:29;17.38;;;14.52;;
55220;SDS011;41089;51.448;6.604;2023-11-21T21:01:29;13.93;;;12.43;;
55220;SDS011;41089;51.448;6.604;2023-11-21T21:07:30;16.55;;;11.73;;
55220;SDS011;41089;51.448;6.604;2023-11-21T21:13:30;17.15;;;13.35;;
55220;SDS011;41089;51.448;6.604;2023-11-21T21:19:32;15.48;;;12.73;;
55220;SDS011;41089;51.448;6.604;2023-11-21T21:25:32;15.82;;;13.77;;
55220;SDS011;41089;51.448;6.604;2023-11-21T21:31:33;14.80;;;12.57;;
55220;SDS011;41089;51.448;6.604;2023-11-21T21:37:33;14.65;;;12.23;;
55220;SDS011;41089;51.448;6.604;2023-11-21T21:43:34;14.23;;;12.10;;
55220;SDS011;41089;51.448;6.604;2023-11-21T21:49:34;13.18;;;11.40;;
55220;SDS011;41089;51.448;6.604;2023-11-21T21:55:34;13.10;;;11.80;;
55220;SDS011;41089;51.448;6.604;2023-11-21T22:01:35;13.68;;;12.27;;
55220;SDS011;41089;51.448;6.604;2023-11-21T22:07:37;12.40;;;10.82;;
55220;SDS011;41089;51.448;6.604;2023-11-21T22:13:39;12.95;;;10.32;;
55220;SDS011;41089;51.448;6.604;2023-11-21T22:19:39;12.37;;;10.27;;
55220;SDS011;41089;51.448;6.604;2023-11-21T22:25:41;12.27;;;11.00;;
55220;SDS011;41089;51.448;6.604;2023-11-21T22:31:41;13.07;;;11.77;;
55220;SDS011;41089;51.448;6.604;2023-11-21T22:37:42;14.20;;;11.77;;
55220;SDS011;41089;51.448;6.604;2023-11-21T22:43:43;12.55;;;11.00;;
55220;SDS011;41089;51.448;6.604;2023-11-21T22:49:44;14.48;;;11.93;;
55220;SDS011;41089;51.448;6.604;2023-11-21T22:55:45;13.50;;;12.07;;
55220;SDS011;41089;51.448;6.604;2023-11-21T23:01:46;13.32;;;11.18;;
55220;SDS011;41089;51.448;6.604;2023-11-21T23:07:48;12.68;;;11.38;;
55220;SDS011;41089;51.448;6.604;2023-11-21T23:13:49;13.27;;;10.80;;
55220;SDS011;41089;51.448;6.604;2023-11-21T23:19:50;13.55;;;9.90;;
55220;SDS011;41089;51.448;6.604;2023-11-21T23:25:51;11.75;;;9.50;;
55220;SDS011;41089;51.448;6.604;2023-11-21T23:31:51;10.43;;;8.82;;
55220;SDS011;41089;51.448;6.604;2023-11-21T23:37:52;12.00;;;10.27;;
55220;SDS011;41089;51.448;6.604;2023-11-21T23:43:53;14.73;;;10.50;;
55220;SDS011;41089;51.448;6.604;2023-11-21T23:49:54;13.25;;;10.55;;
55220;SDS011;41089;51.448;6.604;2023-11-21T23:55:54;10.57;;;9.53;;
